Queen Of Nanaimo — VCNX — position and weather

sailwx.info

Track history (hours):
 
Tides and Currents Weather Stations Pressure Air Temp Water Temp Dewpoint Dewpoint Depression Visibility Wind Speed Wind Dir Waves Ship Positions

Queen Of Nanaimo

Last reported at 2015-Aug-31 19:33 UTC. Time now 2015-Aug-31 19:51 UTC.
Position N 48°49' W 123°20'.

Length 130 m; draft 4 m.

Type: Passenger vessel. MMSI: 316001254.

Date/timePositionNaut miles runAvg speedWind from/ knotsBaromVisibWave heightAir tempDewpointWater temp
2015-Aug-31 19:33N 48°49' W 123°20'4 4.1
2015-Aug-31 18:33N 48°53' W 123°19'9 9.4
2015-Aug-31 17:33N 48°59' W 123°09'1 1.3
2015-Aug-31 16:33N 49°00' W 123°08'1110.7
2015-Aug-31 15:34N 48°53' W 123°19'2 2.0
2015-Aug-31 14:33N 48°51' W 123°20'3 3.3
2015-Aug-31 13:33N 48°50' W 123°25'2 0.3
2015-Aug-31 07:09N 48°51' W 123°26'610.4
2015-Aug-31 06:33N 48°53' W 123°18'10 9.7
2015-Aug-31 05:34N 49°00' W 123°08'1110.5
2015-Aug-31 04:33N 48°53' W 123°19'2 1.7
2015-Aug-31 03:25N 48°51' W 123°20'4 4.9
2015-Aug-31 02:34N 48°54' W 123°17'8 8.3
2015-Aug-31 01:34N 49°00' W 123°08'10 9.8
2015-Aug-31 00:33N 48°53' W 123°18'6 5.5
2015-Aug-30 23:33N 48°50' W 123°25'1 0.7
2015-Aug-30 22:33N 48°51' W 123°25'1110.9
2015-Aug-30 21:34N 48°58' W 123°12'4 3.6
2015-Aug-30 20:33N 49°00' W 123°08'1110.6
2015-Aug-30 19:34N 48°53' W 123°19'2 1.5
2015-Aug-30 18:18N 48°51' W 123°20'4 4.7
2015-Aug-30 17:32N 48°54' W 123°17'9 7.1
2015-Aug-30 16:17N 49°00' W 123°08'810.4
2015-Aug-30 15:33N 48°54' W 123°15'7 7.0
2015-Aug-30 14:33N 48°51' W 123°24'4 0.4
2015-Aug-30 05:32N 48°52' W 123°19'1111.6
2015-Aug-30 04:33N 49°00' W 123°08'0 0.0
2015-Aug-30 03:34N 49°00' W 123°08'0 0.0
2015-Aug-30 02:33N 49°00' W 123°08'0 0.0
2015-Aug-30 01:33N 49°00' W 123°08'1111.0
2015-Aug-30 00:32N 48°52' W 123°19'4 4.1
2015-Aug-29 23:32N 48°51' W 123°25'5 0.9
2015-Aug-29 18:33N 48°53' W 123°18'2 1.9
2015-Aug-29 17:26N 48°51' W 123°20'2 2.5
2015-Aug-29 16:33N 48°53' W 123°18'1010.3
2015-Aug-29 15:33N 49°00' W 123°08'5 4.8
2015-Aug-29 14:34N 48°56' W 123°10'1111.2
2015-Aug-29 13:33N 48°50' W 123°25'1 0.4
2015-Aug-29 10:27N 48°51' W 123°27'0 0.0
2015-Aug-29 09:30N 48°51' W 123°27'0 0.0
2015-Aug-29 06:32N 48°51' W 123°27'2 2.5
2015-Aug-29 05:33N 48°49' W 123°25'4 3.3
2015-Aug-29 04:28N 48°51' W 123°20'1111.8
2015-Aug-29 03:34N 48°59' W 123°09'1 1.3
2015-Aug-29 02:33N 48°60' W 123°08'1211.9
2015-Aug-29 01:33N 48°51' W 123°20'2 2.0
2015-Aug-29 00:33N 48°53' W 123°19'1010.2
2015-Aug-28 23:33N 49°00' W 123°08'2 1.9
2015-Aug-28 22:32N 48°58' W 123°10'1212.5
2015-Aug-28 21:33N 48°51' W 123°25'2 2.0
2015-Aug-28 20:32N 48°49' W 123°24'4 2.8
2015-Aug-28 19:18N 48°51' W 123°20'2 2.6
2015-Aug-28 18:32N 48°53' W 123°19'1110.9
2015-Aug-28 17:33N 49°00' W 123°08'0 0.1
2015-Aug-28 16:33N 49°00' W 123°08'1110.6
2015-Aug-28 15:33N 48°53' W 123°19'3 2.6
2015-Aug-28 14:32N 48°50' W 123°20'3 2.8
2015-Aug-28 13:33N 48°49' W 123°24'3 0.4
2015-Aug-28 06:09N 48°51' W 123°27'1 2.2
2015-Aug-28 05:33N 48°50' W 123°25'3 2.2
2015-Aug-28 04:14N 48°51' W 123°21'4 5.2
2015-Aug-28 03:34N 48°54' W 123°17'9 9.1
2015-Aug-28 02:33N 49°00' W 123°08'6 5.6
2015-Aug-28 01:33N 48°56' W 123°13'5 5.2
2015-Aug-28 00:34N 48°52' W 123°18'6 1.9
2015-Aug-27 21:33N 48°51' W 123°27'3 2.5
2015-Aug-27 20:32N 48°49' W 123°24'3 3.3
2015-Aug-27 19:33N 48°51' W 123°20'2 2.0
2015-Aug-27 18:34N 48°53' W 123°19'1110.6
2015-Aug-27 17:33N 49°00' W 123°08'1 0.7
2015-Aug-27 16:34N 48°60' W 123°08'1010.0
2015-Aug-27 15:33N 48°53' W 123°19'3 3.3
2015-Aug-27 14:33N 48°49' W 123°20'4 3.5
2015-Aug-27 13:33N 48°50' W 123°25'1 0.6
2015-Aug-27 11:32N 48°51' W 123°27'0 0.0
2015-Aug-27 10:18N 48°51' W 123°27'0 0.0
2015-Aug-27 06:21N 48°51' W 123°27'1 1.2
2015-Aug-27 05:32N 48°51' W 123°25'4 2.9
2015-Aug-27 04:15N 48°51' W 123°20'2 3.3
2015-Aug-27 03:33N 48°53' W 123°18'1010.3
2015-Aug-27 02:33N 49°00' W 123°08'1 1.4
2015-Aug-27 01:33N 48°59' W 123°09'9 9.3
2015-Aug-27 00:33N 48°53' W 123°19'4 4.1
2015-Aug-26 23:31N 48°48' W 123°20'5 3.9
2015-Aug-26 22:10N 48°51' W 123°27'2 1.0
2015-Aug-26 20:33N 48°50' W 123°25'3 3.4
2015-Aug-26 19:33N 48°51' W 123°20'2 1.9
2015-Aug-26 18:33N 48°53' W 123°19'1010.6
2015-Aug-26 17:34N 49°00' W 123°08'0 0.3
2015-Aug-26 16:34N 48°60' W 123°08'1010.1
2015-Aug-26 15:33N 48°53' W 123°19'3 3.2
2015-Aug-26 14:32N 48°49' W 123°20'3 3.2
2015-Aug-26 13:33N 48°50' W 123°25'2 1.5
2015-Aug-26 12:28N 48°51' W 123°27'0 0.0
2015-Aug-26 11:33N 48°51' W 123°27'0 0.0
2015-Aug-26 07:33N 48°51' W 123°27'1 0.5
2015-Aug-26 05:30N 48°51' W 123°25'4 3.7
2015-Aug-26 04:33N 48°51' W 123°20'2 2.0
2015-Aug-26 03:34N 48°53' W 123°19'1110.7
2015-Aug-26 02:34N 49°00' W 123°08'2 1.8
2015-Aug-26 01:33N 48°59' W 123°09'9 8.9
2015-Aug-26 00:34N 48°53' W 123°19'3 3.5
2015-Aug-25 23:34N 48°49' W 123°20'4 1.1
2015-Aug-25 20:21N 48°51' W 123°25'4 4.4
2015-Aug-25 19:32N 48°49' W 123°20'3 3.5
2015-Aug-25 18:33N 48°53' W 123°19'8 8.2
2015-Aug-25 17:34N 48°59' W 123°11'2 2.5
2015-Aug-25 16:34N 49°00' W 123°08'1110.7
2015-Aug-25 15:33N 48°53' W 123°19'2 1.9
2015-Aug-25 14:33N 48°51' W 123°20'3 3.2
2015-Aug-25 13:33N 48°49' W 123°24'3 2.6
2015-Aug-25 12:26N 48°51' W 123°27'2 0.2
2015-Aug-25 05:33N 48°50' W 123°25'3 2.8
2015-Aug-25 04:23N 48°51' W 123°20'2 2.8
2015-Aug-25 03:33N 48°53' W 123°18'1010.1
2015-Aug-25 02:33N 49°00' W 123°08'4 4.2
2015-Aug-25 01:34N 48°57' W 123°11'7 6.7
2015-Aug-25 00:33N 48°52' W 123°18'4 3.9
2015-Aug-24 23:33N 48°48' W 123°20'5 4.7
2015-Aug-24 22:32N 48°51' W 123°26'0 0.1
2015-Aug-24 20:33N 48°51' W 123°26'4 3.6
2015-Aug-24 19:31N 48°50' W 123°20'3 2.7
2015-Aug-24 18:33N 48°53' W 123°19'1110.7
2015-Aug-24 17:33N 49°00' W 123°08'0 0.0
2015-Aug-24 16:33N 49°00' W 123°08'1110.7
2015-Aug-24 15:34N 48°53' W 123°19'3 2.7
2015-Aug-24 14:28N 48°50' W 123°20'3 2.8
2015-Aug-24 13:32N 48°49' W 123°24'2 1.6
2015-Aug-24 12:06N 48°51' W 123°27'1 0.2
2015-Aug-24 07:10N 48°51' W 123°25'711.8
2015-Aug-24 06:34N 48°55' W 123°16'8 8.0
2015-Aug-24 05:33N 49°00' W 123°08'1110.6
2015-Aug-24 04:33N 48°53' W 123°19'2 1.6
2015-Aug-24 03:20N 48°51' W 123°20'810.7
2015-Aug-24 02:33N 48°57' W 123°12'4 4.1
2015-Aug-24 01:33N 49°00' W 123°08'1110.5
2015-Aug-24 00:32N 48°53' W 123°19'5 4.9
2015-Aug-23 23:33N 48°51' W 123°26'1 0.8
2015-Aug-23 22:33N 48°51' W 123°25'1413.7
2015-Aug-23 21:34N 48°60' W 123°09'2 2.5
2015-Aug-23 20:33N 48°58' W 123°10'8 7.5
2015-Aug-23 19:33N 48°52' W 123°18'2 1.4
2015-Aug-23 18:17N 48°51' W 123°20'2 3.0
2015-Aug-23 17:34N 48°53' W 123°18'1010.3
2015-Aug-23 16:33N 49°00' W 123°08'7 7.2
2015-Aug-23 15:33N 48°55' W 123°15'7 6.6
2015-Aug-23 14:33N 48°51' W 123°23'2 0.6
2015-Aug-23 10:31N 48°51' W 123°27'0 0.0
2015-Aug-23 09:33N 48°51' W 123°27'0 0.0
2015-Aug-23 06:30N 48°51' W 123°27'3 3.0
2015-Aug-23 05:33N 48°51' W 123°22'1312.8
2015-Aug-23 04:33N 49°00' W 123°08'0 0.5
2015-Aug-23 03:34N 49°00' W 123°08'0 0.0
2015-Aug-23 02:34N 49°00' W 123°08'0 0.0
2015-Aug-23 01:34N 49°00' W 123°08'1111.3
2015-Aug-23 00:34N 48°52' W 123°19'5 4.8
2015-Aug-22 23:31N 48°51' W 123°26'1 0.5
2015-Aug-22 22:25N 48°51' W 123°27'0 0.0
2015-Aug-22 21:32N 48°51' W 123°27'8 7.7
2015-Aug-22 20:34N 48°55' W 123°17'8 8.1
2015-Aug-22 19:34N 49°00' W 123°08'8 8.1
2015-Aug-22 18:33N 48°54' W 123°16'4 3.8
2015-Aug-22 17:25N 48°51' W 123°20'2 2.3
2015-Aug-22 16:33N 48°53' W 123°19'1110.6
2015-Aug-22 15:33N 49°00' W 123°08'2 1.9
2015-Aug-22 14:33N 48°59' W 123°09'1312.7
2015-Aug-22 13:34N 48°51' W 123°25'1 0.2
2015-Aug-22 06:17N 48°51' W 123°27'6 6.7
2015-Aug-22 05:23N 48°48' W 123°19'4 4.3
2015-Aug-22 04:33N 48°52' W 123°20'1211.9
2015-Aug-22 03:33N 49°00' W 123°08'3 3.5
2015-Aug-22 02:33N 48°57' W 123°11'9 6.6
2015-Aug-22 01:12N 48°51' W 123°20'2 3.0
2015-Aug-22 00:33N 48°53' W 123°19'1110.7
2015-Aug-21 23:33N 49°00' W 123°08'2 1.5
2015-Aug-21 22:33N 48°59' W 123°09'1212.4
2015-Aug-21 21:34N 48°51' W 123°24'2 1.6
2015-Aug-21 20:34N 48°51' W 123°26'4 4.1
2015-Aug-21 19:34N 48°49' W 123°20'  
Track history (hours):
 
Tides and Currents Weather Stations Pressure Air Temp Water Temp Dewpoint Dewpoint Depression Visibility Wind Speed Wind Dir Waves Ship Positions

Queen Of Nanaimo

Last reported at 2015-Aug-31 19:33 UTC. Time now 2015-Aug-31 19:51 UTC.
Position N 48°49' W 123°20'.

Length 130 m; draft 4 m.

Type: Passenger vessel. MMSI: 316001254.

Date/timePositionNaut miles runAvg speedWind from/ knotsBaromVisibWave heightAir tempDewpointWater temp
2015-Aug-31 19:33N 48°49' W 123°20'4 4.1
2015-Aug-31 18:33N 48°53' W 123°19'9 9.4
2015-Aug-31 17:33N 48°59' W 123°09'1 1.3
2015-Aug-31 16:33N 49°00' W 123°08'1110.7
2015-Aug-31 15:34N 48°53' W 123°19'2 2.0
2015-Aug-31 14:33N 48°51' W 123°20'3 3.3
2015-Aug-31 13:33N 48°50' W 123°25'2 0.3
2015-Aug-31 07:09N 48°51' W 123°26'610.4
2015-Aug-31 06:33N 48°53' W 123°18'10 9.7
2015-Aug-31 05:34N 49°00' W 123°08'1110.5
2015-Aug-31 04:33N 48°53' W 123°19'2 1.7
2015-Aug-31 03:25N 48°51' W 123°20'4 4.9
2015-Aug-31 02:34N 48°54' W 123°17'8 8.3
2015-Aug-31 01:34N 49°00' W 123°08'10 9.8
2015-Aug-31 00:33N 48°53' W 123°18'6 5.5
2015-Aug-30 23:33N 48°50' W 123°25'1 0.7
2015-Aug-30 22:33N 48°51' W 123°25'1110.9
2015-Aug-30 21:34N 48°58' W 123°12'4 3.6
2015-Aug-30 20:33N 49°00' W 123°08'1110.6
2015-Aug-30 19:34N 48°53' W 123°19'2 1.5
2015-Aug-30 18:18N 48°51' W 123°20'4 4.7
2015-Aug-30 17:32N 48°54' W 123°17'9 7.1
2015-Aug-30 16:17N 49°00' W 123°08'810.4
2015-Aug-30 15:33N 48°54' W 123°15'7 7.0
2015-Aug-30 14:33N 48°51' W 123°24'4 0.4
2015-Aug-30 05:32N 48°52' W 123°19'1111.6
2015-Aug-30 04:33N 49°00' W 123°08'0 0.0
2015-Aug-30 03:34N 49°00' W 123°08'0 0.0
2015-Aug-30 02:33N 49°00' W 123°08'0 0.0
2015-Aug-30 01:33N 49°00' W 123°08'1111.0
2015-Aug-30 00:32N 48°52' W 123°19'4 4.1
2015-Aug-29 23:32N 48°51' W 123°25'5 0.9
2015-Aug-29 18:33N 48°53' W 123°18'2 1.9
2015-Aug-29 17:26N 48°51' W 123°20'2 2.5
2015-Aug-29 16:33N 48°53' W 123°18'1010.3
2015-Aug-29 15:33N 49°00' W 123°08'5 4.8
2015-Aug-29 14:34N 48°56' W 123°10'1111.2
2015-Aug-29 13:33N 48°50' W 123°25'1 0.4
2015-Aug-29 10:27N 48°51' W 123°27'0 0.0
2015-Aug-29 09:30N 48°51' W 123°27'0 0.0
2015-Aug-29 06:32N 48°51' W 123°27'2 2.5
2015-Aug-29 05:33N 48°49' W 123°25'4 3.3
2015-Aug-29 04:28N 48°51' W 123°20'1111.8
2015-Aug-29 03:34N 48°59' W 123°09'1 1.3
2015-Aug-29 02:33N 48°60' W 123°08'1211.9
2015-Aug-29 01:33N 48°51' W 123°20'2 2.0
2015-Aug-29 00:33N 48°53' W 123°19'1010.2
2015-Aug-28 23:33N 49°00' W 123°08'2 1.9
2015-Aug-28 22:32N 48°58' W 123°10'1212.5
2015-Aug-28 21:33N 48°51' W 123°25'2 2.0
2015-Aug-28 20:32N 48°49' W 123°24'4 2.8
2015-Aug-28 19:18N 48°51' W 123°20'2 2.6
2015-Aug-28 18:32N 48°53' W 123°19'1110.9
2015-Aug-28 17:33N 49°00' W 123°08'0 0.1
2015-Aug-28 16:33N 49°00' W 123°08'1110.6
2015-Aug-28 15:33N 48°53' W 123°19'3 2.6
2015-Aug-28 14:32N 48°50' W 123°20'3 2.8
2015-Aug-28 13:33N 48°49' W 123°24'3 0.4
2015-Aug-28 06:09N 48°51' W 123°27'1 2.2
2015-Aug-28 05:33N 48°50' W 123°25'3 2.2
2015-Aug-28 04:14N 48°51' W 123°21'4 5.2
2015-Aug-28 03:34N 48°54' W 123°17'9 9.1
2015-Aug-28 02:33N 49°00' W 123°08'6 5.6
2015-Aug-28 01:33N 48°56' W 123°13'5 5.2
2015-Aug-28 00:34N 48°52' W 123°18'6 1.9
2015-Aug-27 21:33N 48°51' W 123°27'3 2.5
2015-Aug-27 20:32N 48°49' W 123°24'3 3.3
2015-Aug-27 19:33N 48°51' W 123°20'2 2.0
2015-Aug-27 18:34N 48°53' W 123°19'1110.6
2015-Aug-27 17:33N 49°00' W 123°08'1 0.7
2015-Aug-27 16:34N 48°60' W 123°08'1010.0
2015-Aug-27 15:33N 48°53' W 123°19'3 3.3
2015-Aug-27 14:33N 48°49' W 123°20'4 3.5
2015-Aug-27 13:33N 48°50' W 123°25'1 0.6
2015-Aug-27 11:32N 48°51' W 123°27'0 0.0
2015-Aug-27 10:18N 48°51' W 123°27'0 0.0
2015-Aug-27 06:21N 48°51' W 123°27'1 1.2
2015-Aug-27 05:32N 48°51' W 123°25'4 2.9
2015-Aug-27 04:15N 48°51' W 123°20'2 3.3
2015-Aug-27 03:33N 48°53' W 123°18'1010.3
2015-Aug-27 02:33N 49°00' W 123°08'1 1.4
2015-Aug-27 01:33N 48°59' W 123°09'9 9.3
2015-Aug-27 00:33N 48°53' W 123°19'4 4.1
2015-Aug-26 23:31N 48°48' W 123°20'5 3.9
2015-Aug-26 22:10N 48°51' W 123°27'2 1.0
2015-Aug-26 20:33N 48°50' W 123°25'3 3.4
2015-Aug-26 19:33N 48°51' W 123°20'2 1.9
2015-Aug-26 18:33N 48°53' W 123°19'1010.6
2015-Aug-26 17:34N 49°00' W 123°08'0 0.3
2015-Aug-26 16:34N 48°60' W 123°08'1010.1
2015-Aug-26 15:33N 48°53' W 123°19'3 3.2
2015-Aug-26 14:32N 48°49' W 123°20'3 3.2
2015-Aug-26 13:33N 48°50' W 123°25'2 1.5
2015-Aug-26 12:28N 48°51' W 123°27'0 0.0
2015-Aug-26 11:33N 48°51' W 123°27'0 0.0
2015-Aug-26 07:33N 48°51' W 123°27'1 0.5
2015-Aug-26 05:30N 48°51' W 123°25'4 3.7
2015-Aug-26 04:33N 48°51' W 123°20'2 2.0
2015-Aug-26 03:34N 48°53' W 123°19'1110.7
2015-Aug-26 02:34N 49°00' W 123°08'2 1.8
2015-Aug-26 01:33N 48°59' W 123°09'9 8.9
2015-Aug-26 00:34N 48°53' W 123°19'3 3.5
2015-Aug-25 23:34N 48°49' W 123°20'4 1.1
2015-Aug-25 20:21N 48°51' W 123°25'4 4.4
2015-Aug-25 19:32N 48°49' W 123°20'3 3.5
2015-Aug-25 18:33N 48°53' W 123°19'8 8.2
2015-Aug-25 17:34N 48°59' W 123°11'2 2.5
2015-Aug-25 16:34N 49°00' W 123°08'1110.7
2015-Aug-25 15:33N 48°53' W 123°19'2 1.9
2015-Aug-25 14:33N 48°51' W 123°20'3 3.2
2015-Aug-25 13:33N 48°49' W 123°24'3 2.6
2015-Aug-25 12:26N 48°51' W 123°27'2 0.2
2015-Aug-25 05:33N 48°50' W 123°25'3 2.8
2015-Aug-25 04:23N 48°51' W 123°20'2 2.8
2015-Aug-25 03:33N 48°53' W 123°18'1010.1
2015-Aug-25 02:33N 49°00' W 123°08'4 4.2
2015-Aug-25 01:34N 48°57' W 123°11'7 6.7
2015-Aug-25 00:33N 48°52' W 123°18'4 3.9
2015-Aug-24 23:33N 48°48' W 123°20'5 4.7
2015-Aug-24 22:32N 48°51' W 123°26'0 0.1
2015-Aug-24 20:33N 48°51' W 123°26'4 3.6
2015-Aug-24 19:31N 48°50' W 123°20'3 2.7
2015-Aug-24 18:33N 48°53' W 123°19'1110.7
2015-Aug-24 17:33N 49°00' W 123°08'0 0.0
2015-Aug-24 16:33N 49°00' W 123°08'1110.7
2015-Aug-24 15:34N 48°53' W 123°19'3 2.7
2015-Aug-24 14:28N 48°50' W 123°20'3 2.8
2015-Aug-24 13:32N 48°49' W 123°24'2 1.6
2015-Aug-24 12:06N 48°51' W 123°27'1 0.2
2015-Aug-24 07:10N 48°51' W 123°25'711.8
2015-Aug-24 06:34N 48°55' W 123°16'8 8.0
2015-Aug-24 05:33N 49°00' W 123°08'1110.6
2015-Aug-24 04:33N 48°53' W 123°19'2 1.6
2015-Aug-24 03:20N 48°51' W 123°20'810.7
2015-Aug-24 02:33N 48°57' W 123°12'4 4.1
2015-Aug-24 01:33N 49°00' W 123°08'1110.5
2015-Aug-24 00:32N 48°53' W 123°19'5 4.9
2015-Aug-23 23:33N 48°51' W 123°26'1 0.8
2015-Aug-23 22:33N 48°51' W 123°25'1413.7
2015-Aug-23 21:34N 48°60' W 123°09'2 2.5
2015-Aug-23 20:33N 48°58' W 123°10'8 7.5
2015-Aug-23 19:33N 48°52' W 123°18'2 1.4
2015-Aug-23 18:17N 48°51' W 123°20'2 3.0
2015-Aug-23 17:34N 48°53' W 123°18'1010.3
2015-Aug-23 16:33N 49°00' W 123°08'7 7.2
2015-Aug-23 15:33N 48°55' W 123°15'7 6.6
2015-Aug-23 14:33N 48°51' W 123°23'2 0.6
2015-Aug-23 10:31N 48°51' W 123°27'0 0.0
2015-Aug-23 09:33N 48°51' W 123°27'0 0.0
2015-Aug-23 06:30N 48°51' W 123°27'3 3.0
2015-Aug-23 05:33N 48°51' W 123°22'1312.8
2015-Aug-23 04:33N 49°00' W 123°08'0 0.5
2015-Aug-23 03:34N 49°00' W 123°08'0 0.0
2015-Aug-23 02:34N 49°00' W 123°08'0 0.0
2015-Aug-23 01:34N 49°00' W 123°08'1111.3
2015-Aug-23 00:34N 48°52' W 123°19'5 4.8
2015-Aug-22 23:31N 48°51' W 123°26'1 0.5
2015-Aug-22 22:25N 48°51' W 123°27'0 0.0
2015-Aug-22 21:32N 48°51' W 123°27'8 7.7
2015-Aug-22 20:34N 48°55' W 123°17'8 8.1
2015-Aug-22 19:34N 49°00' W 123°08'8 8.1
2015-Aug-22 18:33N 48°54' W 123°16'4 3.8
2015-Aug-22 17:25N 48°51' W 123°20'2 2.3
2015-Aug-22 16:33N 48°53' W 123°19'1110.6
2015-Aug-22 15:33N 49°00' W 123°08'2 1.9
2015-Aug-22 14:33N 48°59' W 123°09'1312.7
2015-Aug-22 13:34N 48°51' W 123°25'1 0.2
2015-Aug-22 06:17N 48°51' W 123°27'6 6.7
2015-Aug-22 05:23N 48°48' W 123°19'4 4.3
2015-Aug-22 04:33N 48°52' W 123°20'1211.9
2015-Aug-22 03:33N 49°00' W 123°08'3 3.5
2015-Aug-22 02:33N 48°57' W 123°11'9 6.6
2015-Aug-22 01:12N 48°51' W 123°20'2 3.0
2015-Aug-22 00:33N 48°53' W 123°19'1110.7
2015-Aug-21 23:33N 49°00' W 123°08'2 1.5
2015-Aug-21 22:33N 48°59' W 123°09'1212.4
2015-Aug-21 21:34N 48°51' W 123°24'2 1.6
2015-Aug-21 20:34N 48°51' W 123°26'4 4.1
2015-Aug-21 19:34N 48°49' W 123°20'  

Dump ship's entire track history